createdAt,value
2023-04-11T00:01:21.910Z,56.30
2023-04-11T00:02:45.466Z,52.63
2023-04-11T00:04:35.482Z,50.53
2023-04-11T00:05:58.101Z,49.88
2023-04-11T00:07:20.349Z,51.38
2023-04-11T00:08:44.874Z,50.15
2023-04-11T00:10:14.049Z,50.60
2023-04-11T00:11:38.283Z,50.08
2023-04-11T00:13:08.371Z,51.25
2023-04-11T00:14:32.525Z,48.70
2023-04-11T00:15:56.022Z,51.05
2023-04-11T00:17:21.697Z,48.28
2023-04-11T00:18:48.704Z,48.88
2023-04-11T00:20:11.130Z,49.63
2023-04-11T00:21:40.309Z,49.47
2023-04-11T00:23:03.124Z,49.35
2023-04-11T00:24:46.276Z,50.85
2023-04-11T00:26:11.355Z,49.47
2023-04-11T00:27:35.831Z,47.92
2023-04-11T00:29:00.685Z,47.75
2023-04-11T00:30:27.067Z,48.60
2023-04-11T00:31:48.684Z,51.33
2023-04-11T00:34:36.713Z,48.53
2023-04-11T00:35:59.399Z,46.97
2023-04-11T00:37:24.583Z,48.25
2023-04-11T00:38:47.295Z,49.88
2023-04-11T00:40:12.590Z,49.88
2023-04-11T00:41:45.432Z,48.67
2023-04-11T00:43:11.344Z,50.33
2023-04-11T00:44:35.160Z,49.22
2023-04-11T00:45:58.015Z,50.67
2023-04-11T00:47:19.287Z,50.38
2023-04-11T00:48:45.805Z,49.35
2023-04-11T00:50:14.243Z,50.33
2023-04-11T00:51:37.028Z,50.45
2023-04-11T00:53:01.473Z,47.95
2023-04-11T00:54:29.411Z,49.13
2023-04-11T00:55:52.376Z,49.35
2023-04-11T00:57:14.920Z,51.15
2023-04-11T00:58:38.129Z,48.28
2023-04-11T01:00:01.254Z,49.30
2023-04-11T01:01:26.089Z,50.28
2023-04-11T01:02:47.986Z,50.97
2023-04-11T01:04:12.089Z,51.10
2023-04-11T01:05:43.780Z,51.38
2023-04-11T01:07:10.631Z,50.47
2023-04-11T01:08:36.440Z,50.28
2023-04-11T01:10:01.461Z,48.35
2023-04-11T01:11:29.937Z,49.72
2023-04-11T01:12:53.458Z,48.80
2023-04-11T01:14:17.806Z,48.33
2023-04-11T01:15:43.148Z,50.40
2023-04-11T01:17:14.987Z,50.63
2023-04-11T01:18:40.405Z,49.45
2023-04-11T01:20:02.820Z,53.25
2023-04-11T01:21:27.335Z,52.88
2023-04-11T01:22:51.353Z,49.45
2023-04-11T01:24:15.001Z,52.00
2023-04-11T01:25:44.104Z,51.08
2023-04-11T01:27:05.262Z,50.95
2023-04-11T01:28:33.384Z,52.05
2023-04-11T01:29:57.013Z,53.03
2023-04-11T01:31:22.568Z,50.25
2023-04-11T01:32:47.471Z,51.10
2023-04-11T01:34:13.480Z,50.17
2023-04-11T01:35:50.677Z,50.83
2023-04-11T01:37:14.018Z,49.45
2023-04-11T01:38:38.148Z,50.38
2023-04-11T01:40:02.593Z,50.65
2023-04-11T01:41:31.145Z,50.65
2023-04-11T01:42:55.996Z,49.05
2023-04-11T01:44:18.884Z,47.70
2023-04-11T01:45:42.206Z,49.13
2023-04-11T01:47:05.046Z,47.92
2023-04-11T01:48:27.444Z,50.20
2023-04-11T01:49:58.145Z,48.25
2023-04-11T01:51:21.186Z,50.35
2023-04-11T01:52:42.429Z,46.08
2023-04-11T01:54:06.411Z,51.63
2023-04-11T01:55:29.443Z,50.42
2023-04-11T01:56:56.133Z,47.33
2023-04-11T01:58:17.453Z,50.78
2023-04-11T01:59:40.017Z,50.30
2023-04-11T02:01:04.340Z,49.40
2023-04-11T02:02:27.218Z,49.75
2023-04-11T02:03:51.312Z,49.17
2023-04-11T02:05:16.070Z,48.63
2023-04-11T02:06:38.710Z,46.17
2023-04-11T02:07:59.731Z,46.78
2023-04-11T02:09:22.258Z,47.63
2023-04-11T02:10:45.403Z,46.95
2023-04-11T02:12:07.942Z,46.25
2023-04-11T02:13:32.528Z,45.97
2023-04-11T02:14:55.796Z,47.35
2023-04-11T02:16:18.481Z,46.67
2023-04-11T02:17:45.717Z,48.05
2023-04-11T02:19:08.337Z,46.95
2023-04-11T02:20:29.489Z,44.53
2023-04-11T02:21:54.404Z,46.00
2023-04-11T02:23:16.479Z,46.50
2023-04-11T02:24:39.436Z,45.75
2023-04-11T02:26:03.570Z,46.53
2023-04-11T02:27:26.026Z,44.55
2023-04-11T02:28:52.803Z,45.13
2023-04-11T02:30:16.149Z,45.53
2023-04-11T02:31:40.292Z,46.40
2023-04-11T02:33:06.305Z,46.95
2023-04-11T02:34:29.415Z,47.40
2023-04-11T02:35:51.710Z,44.80
2023-04-11T02:37:13.120Z,46.75
2023-04-11T02:38:37.787Z,49.83
2023-04-11T02:39:59.009Z,46.90
2023-04-11T02:41:22.744Z,47.30
2023-04-11T02:42:45.194Z,45.25
2023-04-11T02:44:06.715Z,46.13
2023-04-11T02:45:31.991Z,46.83
2023-04-11T02:46:56.499Z,45.50
2023-04-11T02:48:21.744Z,46.13
2023-04-11T02:50:19.502Z,44.60
2023-04-11T02:51:45.977Z,42.88
2023-04-11T02:53:11.512Z,43.97
2023-04-11T02:54:38.871Z,45.78
2023-04-11T02:56:01.649Z,46.97
2023-04-11T02:57:24.521Z,44.80
2023-04-11T02:58:47.504Z,43.80
2023-04-11T03:00:13.055Z,46.80
2023-04-11T03:01:43.942Z,44.58
2023-04-11T03:03:06.710Z,44.60
2023-04-11T03:04:34.816Z,47.55
2023-04-11T03:06:07.102Z,46.58
2023-04-11T03:07:34.100Z,47.08
2023-04-11T03:08:59.098Z,44.90
2023-04-11T03:10:20.858Z,46.13
2023-04-11T03:13:13.796Z,42.90
2023-04-11T03:14:37.345Z,44.38
2023-04-11T03:15:59.958Z,45.88
2023-04-11T03:17:24.819Z,45.20
2023-04-11T03:18:47.317Z,44.35
2023-04-11T03:20:13.163Z,45.25
2023-04-11T03:21:42.215Z,44.85
2023-04-11T03:23:11.238Z,44.72
2023-04-11T03:24:34.498Z,43.22
2023-04-11T03:25:58.629Z,45.92
2023-04-11T03:27:22.220Z,44.08
2023-04-11T03:28:50.640Z,44.63
2023-04-11T03:30:16.700Z,44.38
2023-04-11T03:31:45.141Z,44.17
2023-04-11T03:33:08.626Z,45.53
2023-04-11T03:34:34.733Z,45.20
2023-04-11T03:36:01.756Z,43.75
2023-04-11T03:37:26.857Z,47.53
2023-04-11T03:38:49.465Z,46.05
2023-04-11T03:40:14.582Z,46.70
2023-04-11T03:41:41.271Z,46.20
2023-04-11T03:43:05.501Z,47.25
2023-04-11T03:44:39.303Z,44.90
2023-04-11T03:46:03.919Z,49.53
2023-04-11T03:47:43.583Z,45.38
2023-04-11T03:49:20.793Z,46.70
2023-04-11T03:50:49.292Z,47.17
2023-04-11T03:52:19.239Z,47.20
2023-04-11T03:53:44.388Z,47.25
2023-04-11T03:55:41.351Z,47.38
2023-04-11T03:57:06.547Z,46.00
2023-04-11T03:58:30.379Z,48.17
2023-04-11T03:59:54.703Z,48.20
2023-04-11T04:01:19.577Z,48.03
2023-04-11T04:02:50.877Z,48.17
2023-04-11T04:05:15.800Z,47.58
2023-04-11T04:06:40.312Z,47.05
2023-04-11T04:08:02.900Z,46.97
2023-04-11T04:09:45.324Z,47.88
2023-04-11T04:11:09.046Z,46.22
2023-04-11T04:12:33.378Z,48.83
2023-04-11T04:14:25.327Z,47.83
2023-04-11T04:15:51.601Z,47.78
2023-04-11T04:17:19.017Z,49.08
2023-04-11T04:18:42.959Z,47.33
2023-04-11T04:20:07.606Z,48.38
2023-04-11T04:21:33.052Z,49.50
2023-04-11T04:22:56.736Z,49.47
2023-04-11T04:24:27.556Z,47.30
2023-04-11T04:25:58.309Z,48.38
2023-04-11T04:27:25.568Z,47.97
2023-04-11T04:28:49.552Z,49.15
2023-04-11T04:30:19.451Z,48.10
2023-04-11T04:32:13.742Z,50.03
2023-04-11T04:33:43.094Z,47.23
2023-04-11T04:36:46.617Z,44.80
2023-04-11T04:38:18.124Z,47.85
2023-04-11T04:41:22.374Z,46.58
2023-04-11T04:42:58.632Z,46.15
2023-04-11T04:44:36.383Z,45.70
2023-04-11T04:46:12.286Z,45.08
2023-04-11T04:47:46.421Z,47.00
2023-04-11T04:49:09.430Z,47.17
2023-04-11T04:50:32.104Z,46.50
2023-04-11T04:51:53.376Z,47.72
2023-04-11T04:53:15.902Z,48.00
2023-04-11T04:54:46.979Z,45.70
2023-04-11T04:56:09.528Z,45.33
2023-04-11T04:57:35.304Z,45.33
2023-04-11T04:58:57.995Z,46.28
2023-04-11T05:01:46.816Z,43.63
2023-04-11T05:03:11.737Z,45.58
2023-04-11T05:04:36.314Z,44.22
2023-04-11T05:06:02.873Z,43.30
2023-04-11T05:07:26.830Z,43.13
2023-04-11T05:08:48.870Z,45.53
2023-04-11T05:10:11.861Z,44.33
2023-04-11T05:11:40.089Z,42.35
2023-04-11T05:13:04.160Z,45.00
2023-04-11T05:14:28.396Z,42.25
2023-04-11T05:15:51.483Z,44.15
2023-04-11T05:17:14.783Z,41.97
2023-04-11T05:18:38.617Z,44.17
2023-04-11T05:20:03.253Z,42.60
2023-04-11T05:21:28.140Z,41.85
2023-04-11T05:22:53.707Z,42.00
2023-04-11T05:24:17.575Z,43.00
2023-04-11T05:25:39.785Z,41.50
2023-04-11T05:27:05.890Z,41.88
2023-04-11T05:28:27.512Z,42.53
2023-04-11T05:31:15.282Z,39.17
2023-04-11T05:34:28.243Z,40.00
2023-04-11T05:40:00.837Z,41.42
2023-04-11T05:41:31.848Z,40.50
2023-04-11T05:42:56.608Z,43.35
2023-04-11T05:44:24.089Z,40.17
2023-04-11T05:45:48.109Z,40.65
2023-04-11T05:47:15.300Z,43.40
2023-04-11T05:48:44.085Z,41.05
2023-04-11T05:50:40.909Z,40.55
2023-04-11T05:52:05.387Z,40.75
2023-04-11T05:53:32.155Z,40.20
2023-04-11T05:54:56.989Z,41.92
2023-04-11T05:56:19.345Z,41.88
2023-04-11T05:57:41.529Z,41.95
2023-04-11T05:59:04.006Z,40.03
2023-04-11T06:02:24.465Z,42.22
2023-04-11T06:04:11.299Z,42.28
2023-04-11T06:05:46.150Z,43.38
2023-04-11T06:09:18.097Z,42.00
2023-04-11T06:10:42.340Z,41.17
2023-04-11T06:12:06.823Z,43.42
2023-04-11T06:13:32.279Z,42.47
2023-04-11T06:14:54.999Z,40.95
2023-04-11T06:16:17.481Z,41.35
2023-04-11T06:17:38.853Z,41.25
2023-04-11T06:19:09.707Z,43.50
2023-04-11T06:20:32.520Z,40.00
2023-04-11T06:21:59.460Z,38.67
2023-04-11T06:23:21.965Z,41.10
2023-04-11T06:24:45.633Z,38.10
2023-04-11T06:26:11.280Z,41.38
2023-04-11T06:27:33.686Z,40.88
2023-04-11T06:28:56.019Z,39.28
2023-04-11T06:30:18.241Z,41.50
2023-04-11T06:31:43.955Z,39.55
2023-04-11T06:33:06.309Z,38.42
2023-04-11T06:34:29.294Z,37.30
2023-04-11T06:35:57.240Z,38.03
2023-04-11T06:37:21.234Z,39.83
2023-04-11T06:38:43.597Z,40.75
2023-04-11T06:40:05.923Z,43.50
2023-04-11T06:41:30.328Z,42.80
2023-04-11T06:42:53.028Z,43.10
2023-04-11T06:47:37.140Z,41.17
2023-04-11T06:49:01.847Z,39.97
2023-04-11T06:51:34.157Z,39.42
2023-04-11T06:53:03.100Z,40.45
2023-04-11T06:54:39.632Z,39.88
2023-04-11T06:56:04.334Z,38.33
2023-04-11T06:57:43.375Z,38.72
2023-04-11T06:59:05.975Z,39.58
2023-04-11T07:00:31.292Z,39.60
2023-04-11T07:02:00.341Z,39.53
2023-04-11T07:03:31.001Z,38.67
2023-04-11T07:04:55.916Z,38.40
2023-04-11T07:06:21.212Z,37.30
2023-04-11T07:08:03.222Z,36.45
2023-04-11T07:13:03.503Z,36.17
2023-04-11T07:14:39.721Z,35.78
2023-04-11T07:16:15.243Z,36.83
2023-04-11T07:17:52.712Z,36.17
2023-04-11T07:19:16.781Z,39.08
2023-04-11T07:20:41.141Z,37.58
2023-04-11T07:23:06.179Z,39.13
2023-04-11T07:24:42.566Z,36.58
2023-04-11T07:26:09.246Z,37.55
2023-04-11T07:27:50.856Z,34.88
2023-04-11T07:29:32.247Z,36.60
2023-04-11T07:32:17.621Z,37.85
2023-04-11T07:33:45.502Z,35.25
2023-04-11T07:38:51.139Z,40.67
2023-04-11T08:02:10.538Z,35.45
2023-04-11T08:19:31.827Z,35.85
2023-04-11T08:24:28.758Z,35.33
2023-04-11T08:28:54.077Z,35.03
2023-04-11T08:33:34.829Z,35.30
2023-04-11T08:50:39.847Z,36.28
2023-04-11T08:53:08.990Z,36.25
2023-04-11T08:54:37.696Z,37.40
2023-04-11T09:03:51.460Z,35.88
2023-04-11T09:05:35.644Z,36.67
2023-04-11T09:07:18.394Z,35.97
2023-04-11T09:15:27.016Z,33.15
2023-04-11T09:17:28.044Z,32.90
2023-04-11T09:18:59.280Z,32.08
2023-04-11T09:27:24.961Z,31.23
2023-04-11T09:29:31.807Z,29.33
2023-04-11T09:40:49.782Z,29.50
2023-04-11T10:10:37.752Z,21.77
2023-04-11T10:12:08.338Z,22.73
2023-04-11T10:13:44.044Z,23.35
2023-04-11T10:15:27.406Z,21.38
2023-04-11T10:17:46.999Z,23.30
2023-04-11T10:19:37.696Z,20.25
2023-04-11T10:24:55.212Z,23.13
2023-04-11T10:29:53.241Z,21.10
2023-04-11T10:34:19.604Z,21.48
2023-04-11T10:35:59.963Z,21.07
2023-04-11T10:37:35.642Z,20.33
2023-04-11T10:39:00.037Z,21.35
2023-04-11T10:40:24.473Z,20.48
2023-04-11T10:41:50.680Z,21.73
2023-04-11T10:43:50.286Z,22.23
2023-04-11T10:46:27.878Z,22.67
2023-04-11T10:48:08.017Z,19.63
2023-04-11T10:49:35.124Z,19.33
2023-04-11T11:00:14.821Z,15.77
2023-04-11T11:01:48.906Z,16.70
2023-04-11T11:03:23.785Z,15.23
2023-04-11T11:05:24.526Z,15.77
2023-04-11T11:07:37.264Z,15.27
2023-04-11T11:09:22.188Z,15.07
2023-04-11T11:10:46.585Z,15.38
2023-04-11T11:12:10.937Z,15.55
2023-04-11T11:13:53.970Z,15.63
2023-04-11T11:18:26.305Z,17.50
2023-04-11T11:19:50.059Z,17.48
2023-04-11T11:21:20.618Z,18.65
2023-04-11T11:23:02.558Z,18.15
2023-04-11T11:24:35.553Z,19.30
2023-04-11T11:26:08.930Z,18.65
2023-04-11T11:28:00.974Z,19.55
2023-04-11T11:29:32.863Z,22.15
2023-04-11T11:30:59.252Z,21.55
2023-04-11T11:32:28.529Z,18.23
2023-04-11T11:33:55.690Z,15.48
2023-04-11T11:35:19.308Z,16.55
2023-04-11T11:37:17.470Z,12.68
2023-04-11T11:38:58.121Z,12.80
2023-04-11T11:44:15.929Z,12.90
2023-04-11T11:46:08.728Z,10.73
2023-04-11T11:50:43.768Z,6.97
2023-04-11T11:52:07.556Z,8.35
2023-04-11T11:53:30.277Z,6.20
2023-04-11T11:55:36.131Z,7.40
2023-04-11T11:56:58.757Z,6.78
2023-04-11T11:58:28.962Z,6.00
2023-04-11T11:59:57.194Z,5.72
2023-04-11T12:01:19.804Z,6.00
2023-04-11T12:02:43.658Z,6.00
2023-04-11T12:04:41.676Z,6.55
2023-04-11T12:06:09.256Z,6.00
2023-04-11T12:07:32.784Z,6.43
2023-04-11T12:09:04.812Z,5.97
2023-04-11T12:10:41.407Z,4.85
2023-04-11T12:12:03.536Z,6.25
2023-04-11T12:13:43.457Z,5.13
2023-04-11T12:15:19.617Z,5.75
2023-04-11T12:16:47.592Z,5.78
2023-04-11T12:18:10.111Z,6.30
2023-04-11T12:19:36.367Z,5.45
2023-04-11T12:21:00.983Z,5.38
2023-04-11T12:22:38.793Z,5.72
2023-04-11T12:24:01.965Z,5.55
2023-04-11T12:28:50.068Z,5.38
2023-04-11T12:30:18.860Z,5.25
2023-04-11T12:31:51.431Z,5.05
2023-04-11T12:33:17.824Z,4.43
2023-04-11T12:34:42.706Z,5.20
2023-04-11T12:36:07.214Z,4.57
2023-04-11T12:37:33.567Z,6.28
2023-04-11T12:39:00.580Z,5.15
2023-04-11T12:40:28.743Z,5.78
2023-04-11T12:41:57.725Z,5.75
2023-04-11T12:55:17.338Z,6.95
2023-04-11T12:57:04.619Z,6.20
2023-04-11T13:02:45.225Z,8.15
2023-04-11T13:04:08.563Z,7.82
2023-04-11T13:08:30.854Z,7.43
2023-04-11T13:09:54.037Z,9.50
2023-04-11T13:24:12.827Z,9.93
2023-04-11T13:45:46.551Z,8.18
2023-04-11T13:47:09.930Z,9.02
2023-04-11T13:48:32.117Z,9.48
2023-04-11T13:51:35.300Z,8.50
2023-04-11T13:52:58.205Z,6.72
2023-04-11T13:54:36.712Z,6.40
2023-04-11T14:02:31.854Z,4.85
2023-04-11T14:05:52.626Z,4.47
2023-04-11T14:07:16.603Z,5.20
2023-04-11T14:12:02.954Z,4.78
2023-04-11T14:13:42.077Z,5.03
2023-04-11T14:15:23.473Z,4.47
2023-04-11T14:16:47.054Z,5.35
2023-04-11T14:19:24.125Z,5.25
2023-04-11T14:20:56.725Z,4.82
2023-04-11T14:22:20.112Z,5.05
2023-04-11T14:24:54.061Z,5.55
2023-04-11T14:31:56.877Z,5.53
2023-04-11T14:34:26.029Z,6.13
2023-04-11T14:37:10.029Z,6.13
2023-04-11T14:46:35.710Z,6.93
2023-04-11T15:00:20.352Z,7.10
2023-04-11T15:01:48.449Z,8.07
2023-04-11T15:03:13.503Z,7.30
2023-04-11T15:04:43.769Z,7.28
2023-04-11T15:11:07.692Z,7.15
2023-04-11T15:17:38.467Z,5.18
2023-04-11T15:20:32.418Z,6.80
2023-04-11T15:31:14.192Z,7.32
2023-04-11T15:32:38.986Z,6.97
2023-04-11T15:34:09.122Z,5.85
2023-04-11T15:35:34.434Z,7.38
2023-04-11T15:37:00.936Z,6.80
2023-04-11T15:38:24.316Z,6.85
2023-04-11T15:40:00.263Z,6.43
2023-04-11T15:46:21.760Z,5.55
2023-04-11T15:50:40.591Z,5.20
2023-04-11T15:55:18.648Z,5.10
2023-04-11T15:57:35.355Z,5.97
2023-04-11T15:59:11.668Z,5.97
2023-04-11T16:03:13.780Z,4.10
2023-04-11T16:05:00.067Z,4.82
2023-04-11T16:06:23.200Z,4.32
2023-04-11T16:07:45.519Z,5.40
2023-04-11T16:09:12.157Z,4.55
2023-04-11T16:10:35.761Z,4.22
2023-04-11T16:12:39.106Z,4.82
2023-04-11T16:14:14.737Z,5.25
2023-04-11T16:15:38.830Z,4.82
2023-04-11T16:17:06.540Z,4.80
2023-04-11T16:19:16.533Z,4.53
2023-04-11T16:21:28.335Z,4.22
2023-04-11T16:22:56.370Z,4.93
2023-04-11T16:24:19.301Z,5.28
2023-04-11T16:25:50.878Z,4.55
2023-04-11T16:27:13.246Z,4.70
2023-04-11T16:28:37.828Z,4.88
2023-04-11T16:33:06.996Z,3.95
2023-04-11T16:36:18.150Z,3.88
2023-04-11T16:38:47.384Z,4.25
2023-04-11T16:40:32.706Z,3.85
2023-04-11T16:41:56.325Z,3.90
2023-04-11T16:43:18.641Z,4.78
2023-04-11T16:44:43.162Z,4.13
2023-04-11T16:46:07.737Z,4.00
2023-04-11T16:47:37.860Z,4.25
2023-04-11T16:49:47.704Z,3.72
2023-04-11T16:51:15.769Z,3.72
2023-04-11T16:52:37.658Z,4.68
2023-04-11T16:54:33.007Z,4.57
2023-04-11T16:56:00.583Z,3.67
2023-04-11T16:57:27.636Z,3.63
2023-04-11T16:58:52.627Z,3.67
2023-04-11T17:00:20.135Z,3.90
2023-04-11T17:01:42.707Z,3.90
2023-04-11T17:03:08.849Z,3.88
2023-04-11T17:04:39.513Z,4.63
2023-04-11T17:06:42.363Z,3.67
2023-04-11T17:08:07.415Z,3.90
2023-04-11T17:11:09.381Z,4.22
2023-04-11T17:12:34.350Z,4.65
2023-04-11T17:13:57.831Z,3.97
2023-04-11T17:15:21.328Z,4.28
2023-04-11T17:16:47.692Z,4.00
2023-04-11T17:18:10.194Z,4.35
2023-04-11T17:19:37.153Z,3.92
2023-04-11T17:20:59.805Z,4.20
2023-04-11T17:22:42.393Z,4.45
2023-04-11T17:24:07.157Z,5.47
2023-04-11T17:25:35.450Z,4.20
2023-04-11T17:26:59.635Z,4.25
2023-04-11T17:28:26.054Z,4.47
2023-04-11T17:29:51.013Z,4.75
2023-04-11T17:31:13.696Z,5.20
2023-04-11T17:32:38.109Z,5.47
2023-04-11T17:34:00.600Z,5.07
2023-04-11T17:35:24.658Z,5.03
2023-04-11T17:36:47.946Z,4.53
2023-04-11T17:38:16.226Z,4.75
2023-04-11T17:39:39.648Z,4.97
2023-04-11T17:42:37.192Z,4.35
2023-04-11T17:44:01.832Z,4.63
2023-04-11T17:45:24.366Z,4.70
2023-04-11T17:46:46.495Z,4.75
2023-04-11T17:48:09.328Z,4.80
2023-04-11T17:49:31.646Z,4.82
2023-04-11T17:51:16.585Z,4.68
2023-04-11T17:52:40.379Z,5.05
2023-04-11T17:54:34.535Z,4.43
2023-04-11T17:55:57.751Z,4.47
2023-04-11T17:57:20.384Z,4.55
2023-04-11T17:58:45.317Z,5.30
2023-04-11T18:00:16.448Z,4.95
2023-04-11T18:01:40.065Z,5.22
2023-04-11T18:03:04.663Z,5.60
2023-04-11T18:04:29.140Z,4.93
2023-04-11T18:05:52.446Z,5.63
2023-04-11T18:07:16.592Z,4.68
2023-04-11T18:08:50.309Z,5.78
2023-04-11T18:10:16.514Z,5.63
2023-04-11T18:14:05.597Z,5.20
2023-04-11T18:16:34.804Z,4.88
2023-04-11T18:18:00.024Z,4.15
2023-04-11T18:19:25.491Z,4.03
2023-04-11T18:20:58.226Z,4.10
2023-04-11T18:22:29.374Z,3.40
2023-04-11T18:23:52.208Z,4.22
2023-04-11T18:25:14.525Z,2.63
2023-04-11T18:26:37.028Z,2.97
2023-04-11T18:27:59.346Z,3.03
2023-04-11T18:29:27.076Z,2.70
2023-04-11T18:31:42.668Z,2.60
2023-04-11T18:32:55.106Z,3.65
2023-04-11T18:34:25.898Z,2.25
2023-04-11T18:36:22.578Z,1.90
2023-04-11T18:37:52.120Z,2.10
2023-04-11T18:39:18.868Z,1.80
2023-04-11T18:40:41.241Z,2.00
2023-04-11T18:42:09.802Z,2.13
2023-04-11T18:43:38.906Z,2.10
2023-04-11T18:45:05.367Z,2.08
2023-04-11T18:46:28.425Z,1.92
2023-04-11T18:47:51.638Z,2.03
2023-04-11T18:49:17.776Z,1.92
2023-04-11T18:51:03.173Z,2.08
2023-04-11T18:52:31.745Z,2.40
2023-04-11T18:54:16.973Z,2.10
2023-04-11T18:55:44.359Z,2.63
2023-04-11T18:57:10.601Z,2.40
2023-04-11T18:58:46.709Z,2.20
2023-04-11T19:00:19.485Z,2.17
2023-04-11T19:01:52.532Z,2.10
2023-04-11T19:03:34.996Z,2.05
2023-04-11T19:05:03.285Z,1.90
2023-04-11T19:06:29.533Z,2.30
2023-04-11T19:10:28.793Z,2.53
2023-04-11T19:15:21.609Z,2.70
2023-04-11T19:17:24.626Z,2.92
2023-04-11T19:18:52.499Z,3.13
2023-04-11T19:20:50.385Z,2.70
2023-04-11T19:22:18.540Z,3.03
2023-04-11T19:23:44.794Z,3.38
2023-04-11T19:26:14.805Z,3.33
2023-04-11T19:27:56.624Z,3.80
2023-04-11T19:29:24.170Z,3.07
2023-04-11T19:30:53.226Z,3.20
2023-04-11T19:34:38.536Z,3.30
2023-04-11T19:36:10.657Z,2.80
2023-04-11T19:38:09.185Z,3.33
2023-04-11T19:39:40.237Z,4.00
2023-04-11T19:41:14.763Z,3.72
2023-04-11T19:42:40.624Z,3.38
2023-04-11T19:44:14.568Z,3.75
2023-04-11T19:45:44.188Z,4.10
2023-04-11T19:47:09.659Z,4.78
2023-04-11T19:48:39.044Z,4.20
2023-04-11T19:50:25.823Z,3.88
2023-04-11T19:51:53.166Z,3.95
2023-04-11T19:53:21.103Z,4.18
2023-04-11T19:54:55.180Z,4.22
2023-04-11T19:56:25.172Z,4.00
2023-04-11T19:57:58.194Z,3.67
2023-04-11T19:59:31.571Z,3.90
2023-04-11T20:01:08.841Z,4.35
2023-04-11T20:02:51.948Z,4.05
2023-04-11T20:04:36.251Z,4.57
2023-04-11T20:06:05.747Z,4.10
2023-04-11T20:07:54.388Z,4.82
2023-04-11T20:13:59.592Z,4.97
2023-04-11T20:15:39.751Z,5.15
2023-04-11T20:17:21.790Z,4.97
2023-04-11T20:18:50.132Z,6.03
2023-04-11T20:20:43.597Z,5.15
